createdAt,value
2018-12-01T00:00:49.500Z,1009.42
2018-12-01T00:01:49.495Z,1009.41
2018-12-01T00:02:49.489Z,1009.36
2018-12-01T00:03:49.474Z,1009.40
2018-12-01T00:04:49.466Z,1009.43
2018-12-01T00:05:49.452Z,1009.36
2018-12-01T00:06:49.448Z,1009.40
2018-12-01T00:07:49.432Z,1009.43
2018-12-01T00:08:49.426Z,1009.46
2018-12-01T00:09:49.417Z,1009.49
2018-12-01T00:10:49.414Z,1009.50
2018-12-01T00:11:49.399Z,1009.56
2018-12-01T00:12:49.393Z,1009.54
2018-12-01T00:13:49.376Z,1009.53
2018-12-01T00:14:49.366Z,1009.50
2018-12-01T00:15:49.362Z,1009.56
2018-12-01T00:16:49.352Z,1009.52
2018-12-01T00:17:49.337Z,1009.48
2018-12-01T00:18:49.329Z,1009.50
2018-12-01T00:19:49.318Z,1009.45
2018-12-01T00:20:49.309Z,1009.47
2018-12-01T00:21:49.304Z,1009.52
2018-12-01T00:22:49.295Z,1009.55
2018-12-01T00:23:49.319Z,1009.53
2018-12-01T00:24:49.275Z,1009.52
2018-12-01T00:25:49.261Z,1009.46
2018-12-01T00:26:49.251Z,1009.48
2018-12-01T00:27:49.250Z,1009.45
2018-12-01T00:28:49.232Z,1009.45
2018-12-01T00:29:49.228Z,1009.45
2018-12-01T00:30:49.218Z,1009.45
2018-12-01T00:31:49.203Z,1009.44
2018-12-01T00:32:49.197Z,1009.40
2018-12-01T00:33:49.189Z,1009.46
2018-12-01T00:34:49.180Z,1009.42
2018-12-01T00:35:49.216Z,1009.44
2018-12-01T00:36:49.160Z,1009.40
2018-12-01T00:37:49.145Z,1009.47
2018-12-01T00:38:49.180Z,1009.40
2018-12-01T00:39:49.125Z,1009.39
2018-12-01T00:40:49.116Z,1009.41
2018-12-01T00:41:49.111Z,1009.37
2018-12-01T00:42:49.101Z,1009.41
2018-12-01T00:43:49.091Z,1009.38
2018-12-01T00:44:49.086Z,1009.40
2018-12-01T00:45:49.067Z,1009.36
2018-12-01T00:46:49.060Z,1009.35
2018-12-01T00:47:49.052Z,1009.33
2018-12-01T00:48:49.044Z,1009.30
2018-12-01T00:49:49.029Z,1009.33
2018-12-01T00:50:49.019Z,1009.30
2018-12-01T00:51:49.011Z,1009.38
2018-12-01T00:52:48.999Z,1009.36
2018-12-01T00:53:48.993Z,1009.32
2018-12-01T00:54:48.988Z,1009.33
2018-12-01T00:55:48.973Z,1009.33
2018-12-01T00:56:48.963Z,1009.33
2018-12-01T00:57:48.950Z,1009.35
2018-12-01T00:58:48.940Z,1009.29
2018-12-01T00:59:48.933Z,1009.39
2018-12-01T01:00:48.921Z,1009.36
2018-12-01T01:01:48.916Z,1009.33
2018-12-01T01:02:48.906Z,1009.35
2018-12-01T01:03:48.892Z,1009.36
2018-12-01T01:04:49.329Z,1009.35
2018-12-01T01:05:48.877Z,1009.34
2018-12-01T01:06:48.866Z,1009.39
2018-12-01T01:07:48.861Z,1009.44
2018-12-01T01:08:48.849Z,1009.42
2018-12-01T01:09:48.832Z,1009.45
2018-12-01T01:10:48.823Z,1009.47
2018-12-01T01:11:48.813Z,1009.52
2018-12-01T01:12:48.802Z,1009.51
2018-12-01T01:13:48.798Z,1009.47
2018-12-01T01:14:48.789Z,1009.45
2018-12-01T01:15:48.777Z,1009.44
2018-12-01T01:16:48.768Z,1009.41
2018-12-01T01:17:48.754Z,1009.38
2018-12-01T01:18:48.745Z,1009.37
2018-12-01T01:19:48.737Z,1009.37
2018-12-01T01:20:48.727Z,1009.46
2018-12-01T01:21:48.721Z,1009.45
2018-12-01T01:22:48.705Z,1009.44
2018-12-01T01:23:48.698Z,1009.50
2018-12-01T01:24:48.684Z,1009.49
2018-12-01T01:25:48.680Z,1009.48
2018-12-01T01:26:48.670Z,1009.48
2018-12-01T01:27:48.666Z,1009.47
2018-12-01T01:28:48.650Z,1009.51
2018-12-01T01:29:48.636Z,1009.50
2018-12-01T01:30:48.626Z,1009.48
2018-12-01T01:31:48.616Z,1009.51
2018-12-01T01:32:48.605Z,1009.45
2018-12-01T01:33:48.601Z,1009.53
2018-12-01T01:34:48.592Z,1009.50
2018-12-01T01:35:48.575Z,1009.53
2018-12-01T01:36:48.566Z,1009.55
2018-12-01T01:37:48.560Z,1009.56
2018-12-01T01:38:48.553Z,1009.51
2018-12-01T01:39:48.542Z,1009.53
2018-12-01T01:40:48.535Z,1009.52
2018-12-01T01:41:48.517Z,1009.55
2018-12-01T01:42:48.508Z,1009.48
2018-12-01T01:43:48.497Z,1009.46
2018-12-01T01:44:48.488Z,1009.42
2018-12-01T01:45:48.483Z,1009.50
2018-12-01T01:46:48.474Z,1009.49
2018-12-01T01:47:48.462Z,1009.45
2018-12-01T01:48:48.453Z,1009.45
2018-12-01T01:49:48.440Z,1009.47
2018-12-01T01:50:48.431Z,1009.46
2018-12-01T01:51:48.423Z,1009.49
2018-12-01T01:52:48.414Z,1009.49
2018-12-01T01:53:48.401Z,1009.46
2018-12-01T01:54:48.391Z,1009.50
2018-12-01T01:55:48.383Z,1009.52
2018-12-01T01:56:48.372Z,1009.55
2018-12-01T01:57:48.368Z,1009.53
2018-12-01T01:58:48.358Z,1009.50
2018-12-01T01:59:48.346Z,1009.53
2018-12-01T02:00:48.337Z,1009.55
2018-12-01T02:01:48.328Z,1009.51
2018-12-01T02:02:48.313Z,1009.55
2018-12-01T02:03:48.303Z,1009.54
2018-12-01T02:04:48.295Z,1009.52
2018-12-01T02:05:48.290Z,1009.48
2018-12-01T02:06:48.278Z,1009.42
2018-12-01T02:07:48.263Z,1009.45
2018-12-01T02:08:48.253Z,1009.46
2018-12-01T02:09:48.248Z,1009.43
2018-12-01T02:10:48.239Z,1009.37
2018-12-01T02:11:48.230Z,1009.41
2018-12-01T02:12:48.220Z,1009.41
2018-12-01T02:13:48.206Z,1009.43
2018-12-01T02:14:48.196Z,1009.46
2018-12-01T02:15:48.190Z,1009.46
2018-12-01T02:16:48.181Z,1009.41
2018-12-01T02:17:48.166Z,1009.42
2018-12-01T02:18:48.157Z,1009.44
2018-12-01T02:19:48.153Z,1009.52
2018-12-01T02:20:48.138Z,1009.50
2018-12-01T02:21:48.134Z,1009.53
2018-12-01T02:22:48.125Z,1009.49
2018-12-01T02:23:48.109Z,1009.50
2018-12-01T02:24:48.101Z,1009.52
2018-12-01T02:25:48.094Z,1009.52
2018-12-01T02:26:48.088Z,1009.51
2018-12-01T02:27:48.074Z,1009.52
2018-12-01T02:28:48.067Z,1009.55
2018-12-01T02:29:48.055Z,1009.52
2018-12-01T02:30:48.049Z,1009.45
2018-12-01T02:31:48.034Z,1009.43
2018-12-01T02:32:48.033Z,1009.40
2018-12-01T02:33:48.021Z,1009.43
2018-12-01T02:34:48.009Z,1009.40
2018-12-01T02:35:48.001Z,1009.41
2018-12-01T02:36:47.992Z,1009.33
2018-12-01T02:37:47.978Z,1009.33
2018-12-01T02:38:47.970Z,1009.31
2018-12-01T02:39:47.963Z,1009.31
2018-12-01T02:40:47.954Z,1009.32
2018-12-01T02:41:47.939Z,1009.29
2018-12-01T02:42:47.930Z,1009.27
2018-12-01T02:43:47.922Z,1009.27
2018-12-01T02:44:47.911Z,1009.28
2018-12-01T02:45:47.910Z,1009.27
2018-12-01T02:46:47.896Z,1009.23
2018-12-01T02:47:47.886Z,1009.27
2018-12-01T02:48:47.880Z,1009.30
2018-12-01T02:49:47.863Z,1009.30
2018-12-01T02:50:47.858Z,1009.32
2018-12-01T02:51:47.845Z,1009.30
2018-12-01T02:52:47.836Z,1009.31
2018-12-01T02:53:47.831Z,1009.32
2018-12-01T02:54:47.821Z,1009.28
2018-12-01T02:55:47.806Z,1009.32
2018-12-01T02:56:47.796Z,1009.29
2018-12-01T02:57:47.798Z,1009.29
2018-12-01T02:58:47.785Z,1009.23
2018-12-01T02:59:47.772Z,1009.27
2018-12-01T03:00:47.767Z,1009.27
2018-12-01T03:01:47.748Z,1009.25
2018-12-01T03:02:47.738Z,1009.29
2018-12-01T03:03:47.727Z,1009.26
2018-12-01T03:04:47.718Z,1009.29
2018-12-01T03:05:47.714Z,1009.27
2018-12-01T03:06:47.703Z,1009.24
2018-12-01T03:07:47.693Z,1009.27
2018-12-01T03:08:47.683Z,1009.24
2018-12-01T03:09:47.669Z,1009.25
2018-12-01T03:10:47.661Z,1009.28
2018-12-01T03:11:47.655Z,1009.23
2018-12-01T03:12:47.645Z,1009.20
2018-12-01T03:13:47.630Z,1009.20
2018-12-01T03:14:47.621Z,1009.12
2018-12-01T03:15:47.609Z,1009.16
2018-12-01T03:16:47.601Z,1009.18
2018-12-01T03:17:47.595Z,1009.19
2018-12-01T03:18:47.584Z,1009.18
2018-12-01T03:19:47.576Z,1009.13
2018-12-01T03:20:47.570Z,1009.18
2018-12-01T03:21:47.554Z,1009.22
2018-12-01T03:22:47.541Z,1009.19
2018-12-01T03:23:47.532Z,1009.19
2018-12-01T03:24:47.520Z,1009.16
2018-12-01T03:25:47.515Z,1009.18
2018-12-01T03:26:47.505Z,1009.13
2018-12-01T03:27:47.491Z,1009.15
2018-12-01T03:28:47.490Z,1009.13
2018-12-01T03:29:47.475Z,1009.15
2018-12-01T03:30:47.466Z,1009.14
2018-12-01T03:31:47.459Z,1009.11
2018-12-01T03:32:47.450Z,1009.08
2018-12-01T03:33:47.434Z,1009.09
2018-12-01T03:34:47.422Z,1009.18
2018-12-01T03:35:47.411Z,1009.12
2018-12-01T03:36:47.402Z,1009.13
2018-12-01T03:37:47.397Z,1009.15
2018-12-01T03:38:47.389Z,1009.12
2018-12-01T03:39:47.376Z,1009.13
2018-12-01T03:40:47.370Z,1009.17
2018-12-01T03:41:47.352Z,1009.17
2018-12-01T03:42:47.344Z,1009.18
2018-12-01T03:43:47.338Z,1009.17
2018-12-01T03:44:47.327Z,1009.18
2018-12-01T03:45:47.312Z,1009.21
2018-12-01T03:46:47.303Z,1009.26
2018-12-01T03:47:47.294Z,1009.24
2018-12-01T03:48:47.282Z,1009.24
2018-12-01T03:49:47.277Z,1009.32
2018-12-01T03:50:47.268Z,1009.31
2018-12-01T03:51:47.257Z,1009.33
2018-12-01T03:52:47.247Z,1009.38
2018-12-01T03:53:47.233Z,1009.39
2018-12-01T03:54:47.223Z,1009.36
2018-12-01T03:55:47.212Z,1009.38
2018-12-01T03:56:47.203Z,1009.32
2018-12-01T03:57:47.198Z,1009.31
2018-12-01T03:58:47.187Z,1009.35
2018-12-01T03:59:47.172Z,1009.32
2018-12-01T04:00:47.163Z,1009.37
2018-12-01T04:01:47.157Z,1009.36
2018-12-01T04:02:47.148Z,1009.35
2018-12-01T04:03:47.140Z,1009.44
2018-12-01T04:04:47.128Z,1009.43
2018-12-01T04:05:47.113Z,1009.39
2018-12-01T04:06:47.104Z,1009.40
2018-12-01T04:07:47.093Z,1009.47
2018-12-01T04:08:47.083Z,1009.45
2018-12-01T04:09:47.078Z,1009.46
2018-12-01T04:10:47.068Z,1009.51
2018-12-01T04:11:47.058Z,1009.45
2018-12-01T04:12:47.047Z,1009.46
2018-12-01T04:13:47.032Z,1009.45
2018-12-01T04:14:47.023Z,1009.47
2018-12-01T04:15:47.018Z,1009.50
2018-12-01T04:16:47.006Z,1009.43
2018-12-01T04:17:46.991Z,1009.38
2018-12-01T04:18:46.981Z,1009.50
2018-12-01T04:19:46.974Z,1009.46
2018-12-01T04:20:46.962Z,1009.51
2018-12-01T04:21:46.957Z,1009.52
2018-12-01T04:22:46.947Z,1009.52
2018-12-01T04:23:46.935Z,1009.50
2018-12-01T04:24:46.926Z,1009.47
2018-12-01T04:25:46.916Z,1009.56
2018-12-01T04:26:46.901Z,1009.52
2018-12-01T04:27:46.890Z,1009.53
2018-12-01T04:28:46.881Z,1009.52
2018-12-01T04:29:46.877Z,1009.51
2018-12-01T04:30:46.867Z,1009.47
2018-12-01T04:31:46.851Z,1009.50
2018-12-01T04:32:46.841Z,1009.46
2018-12-01T04:33:46.836Z,1009.49
2018-12-01T04:34:46.828Z,1009.51
2018-12-01T04:35:46.815Z,1009.56
2018-12-01T04:36:46.807Z,1009.53
2018-12-01T04:37:46.793Z,1009.55
2018-12-01T04:38:46.782Z,1009.56
2018-12-01T04:39:46.774Z,1009.57
2018-12-01T04:40:46.762Z,1009.60
2018-12-01T04:41:46.759Z,1009.60
2018-12-01T04:42:46.747Z,1009.61
2018-12-01T04:43:46.738Z,1009.68
2018-12-01T04:44:46.727Z,1009.69
2018-12-01T04:45:46.712Z,1009.70
2018-12-01T04:46:46.703Z,1009.72
2018-12-01T04:47:46.699Z,1009.72
2018-12-01T04:48:46.687Z,1009.71
2018-12-01T04:49:46.673Z,1009.75
2018-12-01T04:50:46.662Z,1009.75
2018-12-01T04:51:46.652Z,1009.74
2018-12-01T04:52:46.644Z,1009.70
2018-12-01T04:53:46.636Z,1009.73
2018-12-01T04:54:46.627Z,1009.77
2018-12-01T04:55:46.616Z,1009.81
2018-12-01T04:56:46.608Z,1009.78
2018-12-01T04:57:46.592Z,1009.79
2018-12-01T04:58:46.583Z,1009.75
2018-12-01T04:59:46.573Z,1009.75
2018-12-01T05:00:46.563Z,1009.75
2018-12-01T05:01:46.557Z,1009.70
2018-12-01T05:02:46.548Z,1009.73
2018-12-01T05:03:46.534Z,1009.69
2018-12-01T05:04:46.528Z,1009.68
2018-12-01T05:05:46.518Z,1009.72
2018-12-01T05:06:46.509Z,1009.71
2018-12-01T05:07:46.504Z,1009.74
2018-12-01T05:08:46.488Z,1009.77
2018-12-01T05:09:46.473Z,1009.73
2018-12-01T05:10:46.465Z,1009.71
2018-12-01T05:11:46.456Z,1009.69
2018-12-01T05:12:46.444Z,1009.70
2018-12-01T05:13:46.440Z,1009.68
2018-12-01T05:14:46.429Z,1009.69
2018-12-01T05:15:46.420Z,1009.70
2018-12-01T05:16:46.412Z,1009.74
2018-12-01T05:17:46.396Z,1009.73
2018-12-01T05:18:46.385Z,1009.71
2018-12-01T05:19:46.380Z,1009.70
2018-12-01T05:20:46.371Z,1009.68
2018-12-01T05:21:46.357Z,1009.72
2018-12-01T05:22:46.346Z,1009.68
2018-12-01T05:23:46.340Z,1009.70
2018-12-01T05:24:46.324Z,1009.77
2018-12-01T05:25:46.319Z,1009.73
2018-12-01T05:26:46.310Z,1009.64
2018-12-01T05:27:46.301Z,1009.70
2018-12-01T05:28:46.289Z,1009.72
2018-12-01T05:29:46.274Z,1009.73
2018-12-01T05:30:46.267Z,1009.74
2018-12-01T05:31:46.253Z,1009.74
2018-12-01T05:32:46.243Z,1009.74
2018-12-01T05:33:46.238Z,1009.77
2018-12-01T05:34:46.227Z,1009.73
2018-12-01T05:35:46.213Z,1009.74
2018-12-01T05:36:46.204Z,1009.75
2018-12-01T05:37:46.197Z,1009.83
2018-12-01T05:38:46.187Z,1009.83
2018-12-01T05:39:46.176Z,1009.88
2018-12-01T05:40:46.166Z,1009.89
2018-12-01T05:41:46.151Z,1009.83
2018-12-01T05:42:46.141Z,1009.86
2018-12-01T05:43:46.131Z,1009.88
2018-12-01T05:44:46.120Z,1009.93
2018-12-01T05:45:46.116Z,1009.86
2018-12-01T05:46:46.104Z,1009.90
2018-12-01T05:47:46.093Z,1009.88
2018-12-01T05:48:46.083Z,1009.90
2018-12-01T05:49:46.069Z,1009.83
2018-12-01T05:50:46.058Z,1009.88
2018-12-01T05:51:46.052Z,1009.88
2018-12-01T05:52:46.042Z,1009.82
2018-12-01T05:53:46.027Z,1009.85
2018-12-01T05:54:46.017Z,1009.81
2018-12-01T05:55:46.007Z,1009.78
2018-12-01T05:56:45.997Z,1009.81
2018-12-01T05:57:45.992Z,1009.81
2018-12-01T05:58:45.981Z,1009.76
2018-12-01T05:59:45.970Z,1009.73
2018-12-01T06:00:45.959Z,1009.76
2018-12-01T06:01:45.949Z,1009.70
2018-12-01T06:02:45.934Z,1009.73
2018-12-01T06:03:45.923Z,1009.66
2018-12-01T06:04:45.913Z,1009.71
2018-12-01T06:05:45.910Z,1009.69
2018-12-01T06:06:45.898Z,1009.64
2018-12-01T06:07:45.892Z,1009.65
2018-12-01T06:08:45.871Z,1009.57
2018-12-01T06:09:45.866Z,1009.59
2018-12-01T06:10:45.856Z,1009.57
2018-12-01T06:11:45.846Z,1009.54
2018-12-01T06:12:45.835Z,1009.49
2018-12-01T06:13:45.820Z,1009.49
2018-12-01T06:14:45.810Z,1009.54
2018-12-01T06:15:45.800Z,1009.46
2018-12-01T06:16:45.792Z,1009.44
2018-12-01T06:17:45.784Z,1009.41
2018-12-01T06:18:45.773Z,1009.43
2018-12-01T06:19:45.761Z,1009.43
2018-12-01T06:20:45.750Z,1009.44
2018-12-01T06:21:45.738Z,1009.47
2018-12-01T06:22:45.726Z,1009.42
2018-12-01T06:23:45.721Z,1009.48
2018-12-01T06:24:45.709Z,1009.46
2018-12-01T06:25:45.705Z,1009.45
2018-12-01T06:26:45.684Z,1009.46
2018-12-01T06:27:45.674Z,1009.43
2018-12-01T06:28:45.663Z,1009.44
2018-12-01T06:29:45.658Z,1009.43
2018-12-01T06:30:45.648Z,1009.46
2018-12-01T06:31:45.637Z,1009.40
2018-12-01T06:32:45.626Z,1009.42
2018-12-01T06:33:45.612Z,1009.47
2018-12-01T06:34:45.602Z,1009.48
2018-12-01T06:35:45.596Z,1009.46
2018-12-01T06:36:45.580Z,1009.44
2018-12-01T06:37:45.573Z,1009.47
2018-12-01T06:38:45.563Z,1009.50
2018-12-01T06:39:45.547Z,1009.61
2018-12-01T06:40:45.537Z,1009.60
2018-12-01T06:41:45.531Z,1009.56
2018-12-01T06:42:45.522Z,1009.54
2018-12-01T06:43:45.511Z,1009.60
2018-12-01T06:44:45.501Z,1009.55
2018-12-01T06:45:45.486Z,1009.58
2018-12-01T06:46:45.475Z,1009.58
2018-12-01T06:47:45.464Z,1009.64
2018-12-01T06:48:45.457Z,1009.57
2018-12-01T06:49:45.452Z,1009.58
2018-12-01T06:50:45.439Z,1009.60
2018-12-01T06:51:45.428Z,1009.54
2018-12-01T06:52:45.418Z,1009.58
2018-12-01T06:53:45.402Z,1009.54
2018-12-01T06:54:45.392Z,1009.54
2018-12-01T06:55:45.385Z,1009.54
2018-12-01T06:56:45.375Z,1009.52
2018-12-01T06:57:45.362Z,1009.53
2018-12-01T06:58:45.350Z,1009.55
2018-12-01T06:59:45.340Z,1009.56
2018-12-01T07:00:45.333Z,1009.57
2018-12-01T07:01:45.323Z,1009.63
2018-12-01T07:02:45.314Z,1009.60
2018-12-01T07:03:45.306Z,1009.65
2018-12-01T07:04:45.292Z,1009.63
2018-12-01T07:05:45.279Z,1009.69
2018-12-01T07:06:45.269Z,1009.66
2018-12-01T07:07:45.257Z,1009.70
2018-12-01T07:08:45.247Z,1009.68
2018-12-01T07:09:45.241Z,1009.67
2018-12-01T07:10:45.233Z,1009.62
2018-12-01T07:11:45.215Z,1009.60
2018-12-01T07:12:45.205Z,1009.61
2018-12-01T07:13:45.199Z,1009.59
2018-12-01T07:14:45.189Z,1009.54
2018-12-01T07:15:45.179Z,1009.59
2018-12-01T07:16:45.168Z,1009.56
2018-12-01T07:17:45.155Z,1009.59
2018-12-01T07:18:45.145Z,1009.56
2018-12-01T07:19:45.133Z,1009.58
2018-12-01T07:20:45.123Z,1009.53
2018-12-01T07:21:45.122Z,1009.59
2018-12-01T07:22:45.111Z,1009.56
2018-12-01T07:23:45.097Z,1009.55
2018-12-01T07:24:45.086Z,1009.50
2018-12-01T07:25:45.072Z,1009.43
2018-12-01T07:26:45.062Z,1009.48
2018-12-01T07:27:45.065Z,1009.53
2018-12-01T07:28:45.045Z,1009.50
2018-12-01T07:29:45.031Z,1009.51
2018-12-01T07:30:45.021Z,1009.51
2018-12-01T07:31:45.053Z,1009.51
2018-12-01T07:32:45.001Z,1009.55
2018-12-01T07:33:44.997Z,1009.57
2018-12-01T07:34:44.986Z,1009.55
2018-12-01T07:35:44.975Z,1009.61
2018-12-01T07:36:44.964Z,1009.61
2018-12-01T07:37:44.950Z,1009.62
2018-12-01T07:38:44.941Z,1009.58
2018-12-01T07:39:44.929Z,1009.56
2018-12-01T07:40:44.920Z,1009.58
2018-12-01T07:41:44.916Z,1009.57
2018-12-01T07:42:44.905Z,1009.59
2018-12-01T07:43:44.889Z,1009.54
2018-12-01T07:44:44.882Z,1009.58
2018-12-01T07:45:44.876Z,1009.54
2018-12-01T07:46:44.864Z,1009.52
2018-12-01T07:47:44.855Z,1009.51
2018-12-01T07:48:44.843Z,1009.52
2018-12-01T07:49:44.830Z,1009.56
2018-12-01T07:50:44.820Z,1009.57
2018-12-01T07:51:44.810Z,1009.56
2018-12-01T07:52:44.824Z,1009.59
2018-12-01T07:53:44.795Z,1009.66
2018-12-01T07:54:44.784Z,1009.59
2018-12-01T07:55:44.776Z,1009.65
2018-12-01T07:56:44.805Z,1009.65
2018-12-01T07:57:44.749Z,1009.61
2018-12-01T07:58:44.741Z,1009.61
2018-12-01T07:59:44.736Z,1009.60
2018-12-01T08:00:44.764Z,1009.66
2018-12-01T08:01:44.711Z,1009.69
2018-12-01T08:02:44.703Z,1009.66
2018-12-01T08:03:44.693Z,1009.70
2018-12-01T08:04:44.681Z,1009.72
2018-12-01T08:05:44.674Z,1009.72
2018-12-01T08:06:44.664Z,1009.80
2018-12-01T08:07:44.656Z,1009.81
2018-12-01T08:08:44.644Z,1009.78
2018-12-01T08:09:44.631Z,1009.78
2018-12-01T08:10:44.620Z,1009.78
2018-12-01T08:11:44.610Z,1009.76
2018-12-01T08:12:44.603Z,1009.77
2018-12-01T08:13:44.595Z,1009.71
2018-12-01T08:14:44.587Z,1009.70
2018-12-01T08:15:44.571Z,1009.70
2018-12-01T08:16:44.563Z,1009.69
2018-12-01T08:17:44.559Z,1009.68
2018-12-01T08:18:44.549Z,1009.70
2018-12-01T08:19:44.537Z,1009.67
2018-12-01T08:20:44.528Z,1009.66
2018-12-01T08:21:44.514Z,1009.69
2018-12-01T08:22:44.504Z,1009.69
2018-12-01T08:23:44.494Z,1009.71
2018-12-01T08:24:44.487Z,1009.73
2018-12-01T08:25:44.481Z,1009.70
2018-12-01T08:26:44.474Z,1009.72
2018-12-01T08:27:44.461Z,1009.74
2018-12-01T08:28:44.453Z,1009.70
2018-12-01T08:29:44.438Z,1009.67
2018-12-01T08:30:44.429Z,1009.70
2018-12-01T08:31:44.425Z,1009.72
2018-12-01T08:32:44.415Z,1009.69
2018-12-01T08:33:44.400Z,1009.62
2018-12-01T08:34:44.391Z,1009.60
2018-12-01T08:35:44.384Z,1009.63
2018-12-01T08:36:44.373Z,1009.59
2018-12-01T08:37:44.369Z,1009.58
2018-12-01T08:38:44.359Z,1009.59
2018-12-01T08:39:44.350Z,1009.60
2018-12-01T08:40:44.340Z,1009.63
2018-12-01T08:41:44.329Z,1009.58
2018-12-01T08:42:44.317Z,1009.59
2018-12-01T08:43:45.155Z,1009.63
2018-12-01T08:44:44.298Z,1009.61
2018-12-01T08:45:44.294Z,1009.66
2018-12-01T08:46:44.285Z,1009.63
2018-12-01T08:47:44.271Z,1009.68
2018-12-01T08:48:44.262Z,1009.68
2018-12-01T08:49:44.541Z,1009.67
2018-12-01T08:50:44.248Z,1009.75
2018-12-01T08:51:44.240Z,1009.74
2018-12-01T08:52:44.232Z,1009.74
2018-12-01T08:53:44.217Z,1009.74
2018-12-01T08:54:44.207Z,1009.80
2018-12-01T08:55:44.198Z,1009.72
2018-12-01T08:56:44.191Z,1009.78
2018-12-01T08:57:44.188Z,1009.76
2018-12-01T08:58:44.179Z,1009.89
2018-12-01T08:59:44.168Z,1009.79
2018-12-01T09:00:44.160Z,1009.92
2018-12-01T09:01:44.147Z,1009.85
2018-12-01T09:02:44.138Z,1009.88
2018-12-01T09:03:44.135Z,1009.80
2018-12-01T09:04:44.125Z,1009.94
2018-12-01T09:05:44.112Z,1009.80
2018-12-01T09:06:44.108Z,1009.88
2018-12-01T09:07:44.095Z,1009.87
2018-12-01T09:08:44.089Z,1009.89
2018-12-01T09:09:44.085Z,1009.93
2018-12-01T09:10:44.076Z,1009.94
2018-12-01T09:11:44.073Z,1009.98
2018-12-01T09:12:44.060Z,1009.89
2018-12-01T09:13:44.047Z,1009.96
2018-12-01T09:14:44.040Z,1009.98
2018-12-01T09:15:44.030Z,1009.87
2018-12-01T09:16:44.023Z,1009.91
2018-12-01T09:17:44.019Z,1009.90
2018-12-01T09:18:44.011Z,1009.84
2018-12-01T09:19:43.997Z,1009.79
2018-12-01T09:20:43.990Z,1009.78
2018-12-01T09:21:43.986Z,1009.75
2018-12-01T09:22:43.978Z,1009.78
2018-12-01T09:23:43.970Z,1009.72
2018-12-01T09:24:43.963Z,1009.82
2018-12-01T09:25:43.951Z,1009.82
2018-12-01T09:26:43.944Z,1009.85
2018-12-01T09:27:43.933Z,1009.84
2018-12-01T09:28:43.925Z,1009.85
2018-12-01T09:29:43.923Z,1009.85
2018-12-01T09:30:43.915Z,1009.90
2018-12-01T09:31:43.908Z,1009.94
2018-12-01T09:32:43.897Z,1009.89
2018-12-01T09:33:43.886Z,1009.89
2018-12-01T09:34:43.879Z,1009.86
2018-12-01T09:35:43.874Z,1009.87
2018-12-01T09:36:43.868Z,1009.86
2018-12-01T09:37:43.857Z,1009.87
2018-12-01T09:38:43.850Z,1010.00
2018-12-01T09:39:43.844Z,1009.99
2018-12-01T09:40:43.836Z,1010.01
2018-12-01T09:41:43.837Z,1010.01
2018-12-01T09:42:43.830Z,1010.01
2018-12-01T09:43:43.823Z,1009.97
2018-12-01T09:44:43.823Z,1009.87
2018-12-01T09:45:43.810Z,1009.85
2018-12-01T09:46:43.803Z,1009.92
2018-12-01T09:47:43.796Z,1009.84
2018-12-01T09:48:43.797Z,1009.78
2018-12-01T09:49:43.793Z,1009.73
2018-12-01T09:50:43.789Z,1009.82
2018-12-01T09:51:43.777Z,1009.86
2018-12-01T09:52:43.775Z,1009.80
2018-12-01T09:53:43.773Z,1009.79
2018-12-01T09:54:43.769Z,1009.85
2018-12-01T09:55:43.766Z,1009.84
2018-12-01T09:56:43.758Z,1009.90
2018-12-01T09:57:43.752Z,1009.89
2018-12-01T09:58:43.747Z,1009.86
2018-12-01T09:59:43.742Z,1009.82
2018-12-01T10:00:43.737Z,1009.85
2018-12-01T10:01:43.738Z,1009.89
2018-12-01T10:02:43.738Z,1009.82
2018-12-01T10:03:43.732Z,1009.85
2018-12-01T10:04:43.729Z,1009.74
2018-12-01T10:05:43.720Z,1009.76
2018-12-01T10:06:43.718Z,1009.80
2018-12-01T10:07:43.718Z,1009.72
2018-12-01T10:08:43.715Z,1009.84
2018-12-01T10:09:43.708Z,1009.78
2018-12-01T10:10:43.705Z,1009.81
2018-12-01T10:11:43.702Z,1009.75
2018-12-01T10:12:43.698Z,1009.74
2018-12-01T10:13:43.701Z,1009.75
2018-12-01T10:14:43.698Z,1009.73
2018-12-01T10:15:43.699Z,1009.66
2018-12-01T10:16:43.691Z,1009.68
2018-12-01T10:17:43.685Z,1009.65
2018-12-01T10:18:43.682Z,1009.68
2018-12-01T10:19:43.678Z,1009.60
2018-12-01T10:20:43.679Z,1009.68
2018-12-01T10:21:43.684Z,1009.61
2018-12-01T10:22:43.676Z,1009.64
2018-12-01T10:23:43.670Z,1009.64
2018-12-01T10:24:43.665Z,1009.55
2018-12-01T10:25:43.666Z,1009.59
2018-12-01T10:26:43.664Z,1009.48
2018-12-01T10:27:43.665Z,1009.49
2018-12-01T10:28:43.658Z,1009.40
2018-12-01T10:29:43.648Z,1009.37
2018-12-01T10:30:43.646Z,1009.40
2018-12-01T10:31:43.640Z,1009.39
2018-12-01T10:32:43.637Z,1009.44
2018-12-01T10:33:43.637Z,1009.44
2018-12-01T10:34:43.633Z,1009.40
2018-12-01T10:35:43.629Z,1009.40
2018-12-01T10:36:43.626Z,1009.38
2018-12-01T10:37:43.616Z,1009.35
2018-12-01T10:38:43.611Z,1009.35
2018-12-01T10:39:43.612Z,1009.34
2018-12-01T10:40:43.607Z,1009.36
2018-12-01T10:41:43.597Z,1009.34
2018-12-01T10:42:43.595Z,1009.34
2018-12-01T10:43:43.598Z,1009.28
2018-12-01T10:44:43.581Z,1009.26
2018-12-01T10:45:43.581Z,1009.26
2018-12-01T10:46:43.575Z,1009.18
2018-12-01T10:47:43.569Z,1009.23
2018-12-01T10:48:43.563Z,1009.26
2018-12-01T10:49:43.554Z,1009.22
2018-12-01T10:50:43.548Z,1009.19
2018-12-01T10:51:43.541Z,1009.21
2018-12-01T10:52:43.536Z,1009.23
2018-12-01T10:53:43.536Z,1009.16
2018-12-01T10:54:43.529Z,1009.17
2018-12-01T10:55:43.517Z,1009.17
2018-12-01T10:56:43.511Z,1009.18
2018-12-01T10:57:43.509Z,1009.17
2018-12-01T10:58:43.504Z,1009.17
2018-12-01T10:59:43.522Z,1009.12
2018-12-01T11:00:43.492Z,1009.16
2018-12-01T11:01:43.480Z,1009.18
2018-12-01T11:02:43.474Z,1009.22
2018-12-01T11:03:43.466Z,1009.18
2018-12-01T11:04:43.459Z,1009.19
2018-12-01T11:05:43.458Z,1009.24
2018-12-01T11:06:43.452Z,1009.25
2018-12-01T11:07:43.443Z,1009.21
2018-12-01T11:08:43.436Z,1009.16
2018-12-01T11:09:43.425Z,1009.15
2018-12-01T11:10:43.421Z,1009.12
2018-12-01T11:11:43.421Z,1009.05
2018-12-01T11:12:43.411Z,1009.03
2018-12-01T11:13:43.400Z,1009.06
2018-12-01T11:14:43.394Z,1009.13
2018-12-01T11:15:43.388Z,1009.07
2018-12-01T11:16:43.382Z,1009.01
2018-12-01T11:17:43.381Z,1009.00
2018-12-01T11:18:43.375Z,1008.99
2018-12-01T11:19:43.369Z,1008.94
2018-12-01T11:20:43.364Z,1008.96
2018-12-01T11:21:43.352Z,1008.96
2018-12-01T11:22:43.347Z,1008.91
2018-12-01T11:23:43.340Z,1008.85
2018-12-01T11:24:43.338Z,1008.90
2018-12-01T11:25:43.333Z,1008.80
2018-12-01T11:26:43.327Z,1008.79
2018-12-01T11:27:43.316Z,1008.82
2018-12-01T11:28:43.309Z,1008.74
2018-12-01T11:29:43.307Z,1008.71
2018-12-01T11:30:43.302Z,1008.74
2018-12-01T11:31:43.300Z,1008.71
2018-12-01T11:32:43.290Z,1008.71
2018-12-01T11:33:43.278Z,1008.68
2018-12-01T11:34:43.272Z,1008.69
2018-12-01T11:35:43.264Z,1008.65
2018-12-01T11:36:43.259Z,1008.60
2018-12-01T11:37:43.258Z,1008.65
2018-12-01T11:38:43.253Z,1008.60
2018-12-01T11:39:43.243Z,1008.60
2018-12-01T11:40:43.237Z,1008.65
2018-12-01T11:41:43.226Z,1008.62
2018-12-01T11:42:43.220Z,1008.55
2018-12-01T11:43:43.217Z,1008.54
2018-12-01T11:44:43.211Z,1008.55
2018-12-01T11:45:43.201Z,1008.52
2018-12-01T11:46:43.194Z,1008.54
2018-12-01T11:47:43.188Z,1008.52
2018-12-01T11:48:43.181Z,1008.47
2018-12-01T11:49:43.189Z,1008.47
2018-12-01T11:50:43.174Z,1008.37
2018-12-01T11:51:43.166Z,1008.34
2018-12-01T11:52:43.160Z,1008.38
2018-12-01T11:53:43.150Z,1008.38
2018-12-01T11:54:43.144Z,1008.43
2018-12-01T11:55:43.139Z,1008.42
2018-12-01T11:56:43.132Z,1008.34
2018-12-01T11:57:43.129Z,1008.33
2018-12-01T11:58:43.123Z,1008.32
2018-12-01T11:59:43.113Z,1008.29
2018-12-01T12:00:43.106Z,1008.27
2018-12-01T12:01:43.110Z,1008.27
2018-12-01T12:02:43.099Z,1008.29
2018-12-01T12:03:43.092Z,1008.19
2018-12-01T12:04:43.087Z,1008.17
2018-12-01T12:05:43.077Z,1008.17